sensor_id;sensor_type;location;lat;lon;timestamp;P1;durP1;ratioP1;P2;durP2;ratioP2
14890;SDS011;7537;48.014;11.590;2023-03-19T00:00:02;6.63;;;3.93;;
14890;SDS011;7537;48.014;11.590;2023-03-19T00:05:29;4.51;;;3.76;;
14890;SDS011;7537;48.014;11.590;2023-03-19T00:10:56;3.65;;;3.16;;
14890;SDS011;7537;48.014;11.590;2023-03-19T00:16:24;8.52;;;3.59;;
14890;SDS011;7537;48.014;11.590;2023-03-19T00:21:51;7.18;;;3.82;;
14890;SDS011;7537;48.014;11.590;2023-03-19T00:27:19;7.43;;;4.31;;
14890;SDS011;7537;48.014;11.590;2023-03-19T00:32:46;7.79;;;4.27;;
14890;SDS011;7537;48.014;11.590;2023-03-19T00:38:14;5.59;;;3.81;;
14890;SDS011;7537;48.014;11.590;2023-03-19T00:43:41;8.10;;;3.53;;
14890;SDS011;7537;48.014;11.590;2023-03-19T00:49:12;7.71;;;3.68;;
14890;SDS011;7537;48.014;11.590;2023-03-19T00:54:39;9.68;;;4.18;;
14890;SDS011;7537;48.014;11.590;2023-03-19T01:00:08;8.56;;;4.81;;
14890;SDS011;7537;48.014;11.590;2023-03-19T01:05:35;8.56;;;5.61;;
14890;SDS011;7537;48.014;11.590;2023-03-19T01:11:07;5.47;;;4.69;;
14890;SDS011;7537;48.014;11.590;2023-03-19T01:16:34;8.58;;;5.08;;
14890;SDS011;7537;48.014;11.590;2023-03-19T01:22:02;9.56;;;5.03;;
14890;SDS011;7537;48.014;11.590;2023-03-19T01:27:30;5.14;;;4.39;;
14890;SDS011;7537;48.014;11.590;2023-03-19T01:32:57;8.18;;;4.17;;
14890;SDS011;7537;48.014;11.590;2023-03-19T01:38:25;5.45;;;4.27;;
14890;SDS011;7537;48.014;11.590;2023-03-19T01:43:52;4.93;;;3.34;;
14890;SDS011;7537;48.014;11.590;2023-03-19T01:49:23;6.01;;;3.91;;
14890;SDS011;7537;48.014;11.590;2023-03-19T01:54:56;3.97;;;3.69;;
14890;SDS011;7537;48.014;11.590;2023-03-19T02:00:25;3.89;;;2.85;;
14890;SDS011;7537;48.014;11.590;2023-03-19T02:05:52;7.17;;;3.32;;
14890;SDS011;7537;48.014;11.590;2023-03-19T02:11:21;3.49;;;3.42;;
14890;SDS011;7537;48.014;11.590;2023-03-19T02:16:48;3.84;;;3.68;;
14890;SDS011;7537;48.014;11.590;2023-03-19T02:22:16;5.59;;;3.83;;
14890;SDS011;7537;48.014;11.590;2023-03-19T02:27:44;4.00;;;3.10;;
14890;SDS011;7537;48.014;11.590;2023-03-19T02:33:13;3.49;;;3.09;;
14890;SDS011;7537;48.014;11.590;2023-03-19T02:38:41;4.77;;;3.99;;
14890;SDS011;7537;48.014;11.590;2023-03-19T02:44:09;6.33;;;3.61;;
14890;SDS011;7537;48.014;11.590;2023-03-19T02:49:41;3.88;;;3.58;;
14890;SDS011;7537;48.014;11.590;2023-03-19T02:55:08;4.05;;;3.76;;
14890;SDS011;7537;48.014;11.590;2023-03-19T03:00:39;6.26;;;3.83;;
14890;SDS011;7537;48.014;11.590;2023-03-19T03:06:07;4.30;;;3.89;;
14890;SDS011;7537;48.014;11.590;2023-03-19T03:11:34;2.98;;;3.01;;
14890;SDS011;7537;48.014;11.590;2023-03-19T03:17:01;4.07;;;3.59;;
14890;SDS011;7537;48.014;11.590;2023-03-19T03:22:29;11.14;;;5.13;;
14890;SDS011;7537;48.014;11.590;2023-03-19T03:27:56;4.41;;;4.06;;
14890;SDS011;7537;48.014;11.590;2023-03-19T03:33:24;5.59;;;4.01;;
14890;SDS011;7537;48.014;11.590;2023-03-19T03:38:51;7.37;;;4.05;;
14890;SDS011;7537;48.014;11.590;2023-03-19T03:44:18;4.79;;;4.41;;
14890;SDS011;7537;48.014;11.590;2023-03-19T03:49:54;5.38;;;4.85;;
14890;SDS011;7537;48.014;11.590;2023-03-19T03:55:22;5.57;;;4.59;;
14890;SDS011;7537;48.014;11.590;2023-03-19T04:00:49;4.07;;;4.12;;
14890;SDS011;7537;48.014;11.590;2023-03-19T04:06:17;5.84;;;3.41;;
14890;SDS011;7537;48.014;11.590;2023-03-19T04:11:51;8.51;;;4.37;;
14890;SDS011;7537;48.014;11.590;2023-03-19T04:17:18;5.33;;;3.77;;
14890;SDS011;7537;48.014;11.590;2023-03-19T04:22:45;6.10;;;3.90;;
14890;SDS011;7537;48.014;11.590;2023-03-19T04:28:13;5.00;;;3.79;;
14890;SDS011;7537;48.014;11.590;2023-03-19T04:33:40;4.43;;;3.76;;
14890;SDS011;7537;48.014;11.590;2023-03-19T04:39:07;4.23;;;3.97;;
14890;SDS011;7537;48.014;11.590;2023-03-19T04:44:35;6.49;;;4.04;;
14890;SDS011;7537;48.014;11.590;2023-03-19T04:50:07;4.25;;;4.19;;
14890;SDS011;7537;48.014;11.590;2023-03-19T04:55:34;5.14;;;4.10;;
14890;SDS011;7537;48.014;11.590;2023-03-19T05:01:02;6.36;;;4.30;;
14890;SDS011;7537;48.014;11.590;2023-03-19T05:06:29;9.37;;;4.42;;
14890;SDS011;7537;48.014;11.590;2023-03-19T05:11:57;5.77;;;4.61;;
14890;SDS011;7537;48.014;11.590;2023-03-19T05:17:24;7.50;;;4.93;;
14890;SDS011;7537;48.014;11.590;2023-03-19T05:22:52;4.77;;;4.16;;
14890;SDS011;7537;48.014;11.590;2023-03-19T05:28:19;4.84;;;4.34;;
14890;SDS011;7537;48.014;11.590;2023-03-19T05:33:47;5.79;;;4.77;;
14890;SDS011;7537;48.014;11.590;2023-03-19T05:39:15;5.36;;;3.94;;
14890;SDS011;7537;48.014;11.590;2023-03-19T05:44:42;8.47;;;4.72;;
14890;SDS011;7537;48.014;11.590;2023-03-19T05:50:13;3.93;;;4.02;;
14890;SDS011;7537;48.014;11.590;2023-03-19T05:55:41;4.26;;;4.04;;
14890;SDS011;7537;48.014;11.590;2023-03-19T06:01:08;4.22;;;4.11;;
14890;SDS011;7537;48.014;11.590;2023-03-19T06:06:41;5.40;;;3.87;;
14890;SDS011;7537;48.014;11.590;2023-03-19T06:12:09;5.54;;;4.30;;
14890;SDS011;7537;48.014;11.590;2023-03-19T06:17:37;4.92;;;4.21;;
14890;SDS011;7537;48.014;11.590;2023-03-19T06:23:04;7.58;;;4.36;;
14890;SDS011;7537;48.014;11.590;2023-03-19T06:28:32;5.56;;;4.71;;
14890;SDS011;7537;48.014;11.590;2023-03-19T06:33:59;5.43;;;4.18;;
14890;SDS011;7537;48.014;11.590;2023-03-19T06:39:27;6.57;;;4.87;;
14890;SDS011;7537;48.014;11.590;2023-03-19T06:44:55;7.74;;;5.95;;
14890;SDS011;7537;48.014;11.590;2023-03-19T06:50:35;8.46;;;5.31;;
14890;SDS011;7537;48.014;11.590;2023-03-19T06:56:03;5.13;;;4.80;;
14890;SDS011;7537;48.014;11.590;2023-03-19T07:01:32;6.81;;;5.17;;
14890;SDS011;7537;48.014;11.590;2023-03-19T07:06:59;4.16;;;4.07;;
14890;SDS011;7537;48.014;11.590;2023-03-19T07:12:27;5.12;;;4.93;;
14890;SDS011;7537;48.014;11.590;2023-03-19T07:17:54;4.87;;;3.76;;
14890;SDS011;7537;48.014;11.590;2023-03-19T07:23:22;6.23;;;4.79;;
14890;SDS011;7537;48.014;11.590;2023-03-19T07:28:49;6.46;;;4.17;;
14890;SDS011;7537;48.014;11.590;2023-03-19T07:34:16;3.56;;;3.69;;
14890;SDS011;7537;48.014;11.590;2023-03-19T07:39:44;6.68;;;4.71;;
14890;SDS011;7537;48.014;11.590;2023-03-19T07:45:11;5.35;;;4.06;;
14890;SDS011;7537;48.014;11.590;2023-03-19T07:50:42;4.96;;;3.75;;
14890;SDS011;7537;48.014;11.590;2023-03-19T07:56:10;5.36;;;3.94;;
14890;SDS011;7537;48.014;11.590;2023-03-19T08:01:38;4.17;;;3.47;;
14890;SDS011;7537;48.014;11.590;2023-03-19T08:07:05;4.15;;;3.63;;
14890;SDS011;7537;48.014;11.590;2023-03-19T08:12:33;4.64;;;3.97;;
14890;SDS011;7537;48.014;11.590;2023-03-19T08:18:01;5.49;;;3.78;;
14890;SDS011;7537;48.014;11.590;2023-03-19T08:23:29;3.95;;;3.29;;
14890;SDS011;7537;48.014;11.590;2023-03-19T08:28:56;3.40;;;3.46;;
14890;SDS011;7537;48.014;11.590;2023-03-19T08:34:24;2.76;;;2.86;;
14890;SDS011;7537;48.014;11.590;2023-03-19T08:39:51;3.12;;;3.22;;
14890;SDS011;7537;48.014;11.590;2023-03-19T08:45:20;3.21;;;3.13;;
14890;SDS011;7537;48.014;11.590;2023-03-19T08:50:52;2.88;;;2.87;;
14890;SDS011;7537;48.014;11.590;2023-03-19T08:56:20;3.39;;;3.08;;
14890;SDS011;7537;48.014;11.590;2023-03-19T09:01:49;3.01;;;2.87;;
14890;SDS011;7537;48.014;11.590;2023-03-19T09:07:17;3.00;;;3.06;;
14890;SDS011;7537;48.014;11.590;2023-03-19T09:12:44;3.36;;;3.28;;
14890;SDS011;7537;48.014;11.590;2023-03-19T09:18:12;4.91;;;3.38;;
14890;SDS011;7537;48.014;11.590;2023-03-19T09:23:39;3.69;;;3.60;;
14890;SDS011;7537;48.014;11.590;2023-03-19T09:29:07;6.47;;;3.99;;
14890;SDS011;7537;48.014;11.590;2023-03-19T09:34:34;3.28;;;3.33;;
14890;SDS011;7537;48.014;11.590;2023-03-19T09:40:02;5.19;;;3.58;;
14890;SDS011;7537;48.014;11.590;2023-03-19T09:45:30;3.19;;;3.31;;
14890;SDS011;7537;48.014;11.590;2023-03-19T09:51:01;4.07;;;3.33;;
14890;SDS011;7537;48.014;11.590;2023-03-19T09:56:31;3.23;;;3.17;;
14890;SDS011;7537;48.014;11.590;2023-03-19T10:02:02;4.18;;;3.37;;
14890;SDS011;7537;48.014;11.590;2023-03-19T10:07:39;3.23;;;2.74;;
14890;SDS011;7537;48.014;11.590;2023-03-19T10:13:11;3.03;;;2.83;;
14890;SDS011;7537;48.014;11.590;2023-03-19T10:18:49;6.21;;;3.31;;
14890;SDS011;7537;48.014;11.590;2023-03-19T10:24:20;4.02;;;2.99;;
14890;SDS011;7537;48.014;11.590;2023-03-19T10:29:48;3.99;;;2.69;;
14890;SDS011;7537;48.014;11.590;2023-03-19T10:35:17;3.29;;;2.83;;
14890;SDS011;7537;48.014;11.590;2023-03-19T10:40:50;2.41;;;2.54;;
14890;SDS011;7537;48.014;11.590;2023-03-19T10:46:21;1.88;;;1.94;;
14890;SDS011;7537;48.014;11.590;2023-03-19T10:51:52;2.46;;;2.44;;
14890;SDS011;7537;48.014;11.590;2023-03-19T10:57:24;3.59;;;2.32;;
14890;SDS011;7537;48.014;11.590;2023-03-19T11:02:53;2.89;;;2.67;;
14890;SDS011;7537;48.014;11.590;2023-03-19T11:08:20;3.59;;;2.46;;
14890;SDS011;7537;48.014;11.590;2023-03-19T11:13:48;2.94;;;2.04;;
14890;SDS011;7537;48.014;11.590;2023-03-19T11:19:16;1.72;;;1.78;;
14890;SDS011;7537;48.014;11.590;2023-03-19T11:24:48;2.38;;;1.94;;
14890;SDS011;7537;48.014;11.590;2023-03-19T11:30:17;1.91;;;1.96;;
14890;SDS011;7537;48.014;11.590;2023-03-19T11:35:48;1.48;;;1.57;;
14890;SDS011;7537;48.014;11.590;2023-03-19T11:41:20;2.34;;;1.70;;
14890;SDS011;7537;48.014;11.590;2023-03-19T11:46:51;2.39;;;2.31;;
14890;SDS011;7537;48.014;11.590;2023-03-19T11:52:30;2.00;;;1.86;;
14890;SDS011;7537;48.014;11.590;2023-03-19T11:58:07;1.70;;;1.79;;
14890;SDS011;7537;48.014;11.590;2023-03-19T12:03:44;2.08;;;2.01;;
14890;SDS011;7537;48.014;11.590;2023-03-19T12:09:21;1.69;;;1.71;;
14890;SDS011;7537;48.014;11.590;2023-03-19T12:14:56;2.05;;;2.04;;
14890;SDS011;7537;48.014;11.590;2023-03-19T12:20:31;2.56;;;2.22;;
14890;SDS011;7537;48.014;11.590;2023-03-19T12:26:01;4.24;;;2.27;;
14890;SDS011;7537;48.014;11.590;2023-03-19T12:31:47;2.58;;;2.57;;
14890;SDS011;7537;48.014;11.590;2023-03-19T12:37:20;2.36;;;2.31;;
14890;SDS011;7537;48.014;11.590;2023-03-19T12:42:48;2.31;;;2.14;;
14890;SDS011;7537;48.014;11.590;2023-03-19T12:48:17;2.95;;;2.48;;
14890;SDS011;7537;48.014;11.590;2023-03-19T12:53:54;2.46;;;2.59;;
14890;SDS011;7537;48.014;11.590;2023-03-19T12:59:26;1.85;;;1.85;;
14890;SDS011;7537;48.014;11.590;2023-03-19T13:04:54;2.86;;;2.74;;
14890;SDS011;7537;48.014;11.590;2023-03-19T13:10:23;1.63;;;1.58;;
14890;SDS011;7537;48.014;11.590;2023-03-19T13:15:51;1.79;;;1.91;;
14890;SDS011;7537;48.014;11.590;2023-03-19T13:21:21;1.94;;;1.94;;
14890;SDS011;7537;48.014;11.590;2023-03-19T13:26:52;2.25;;;2.33;;
14890;SDS011;7537;48.014;11.590;2023-03-19T13:32:23;2.84;;;2.48;;
14890;SDS011;7537;48.014;11.590;2023-03-19T13:37:54;2.60;;;2.25;;
14890;SDS011;7537;48.014;11.590;2023-03-19T13:55:29;2.51;;;2.21;;
14890;SDS011;7537;48.014;11.590;2023-03-19T14:00:58;3.84;;;1.92;;
14890;SDS011;7537;48.014;11.590;2023-03-19T14:06:29;2.50;;;2.54;;
14890;SDS011;7537;48.014;11.590;2023-03-19T14:12:08;2.31;;;2.41;;
14890;SDS011;7537;48.014;11.590;2023-03-19T14:17:36;1.92;;;1.96;;
14890;SDS011;7537;48.014;11.590;2023-03-19T14:23:20;1.62;;;1.62;;
14890;SDS011;7537;48.014;11.590;2023-03-19T14:28:58;2.16;;;1.74;;
14890;SDS011;7537;48.014;11.590;2023-03-19T14:34:35;1.89;;;1.93;;
14890;SDS011;7537;48.014;11.590;2023-03-19T14:40:08;1.88;;;1.86;;
14890;SDS011;7537;48.014;11.590;2023-03-19T14:45:41;2.08;;;2.08;;
14890;SDS011;7537;48.014;11.590;2023-03-19T14:51:17;2.02;;;2.11;;
14890;SDS011;7537;48.014;11.590;2023-03-19T14:56:51;2.46;;;1.91;;
14890;SDS011;7537;48.014;11.590;2023-03-19T15:02:32;1.95;;;1.79;;
14890;SDS011;7537;48.014;11.590;2023-03-19T15:08:02;2.95;;;1.89;;
14890;SDS011;7537;48.014;11.590;2023-03-19T15:13:34;2.72;;;2.06;;
14890;SDS011;7537;48.014;11.590;2023-03-19T15:19:05;2.79;;;2.16;;
14890;SDS011;7537;48.014;11.590;2023-03-19T15:24:34;1.58;;;1.71;;
14890;SDS011;7537;48.014;11.590;2023-03-19T15:30:02;1.76;;;1.79;;
14890;SDS011;7537;48.014;11.590;2023-03-19T15:35:30;5.18;;;1.60;;
14890;SDS011;7537;48.014;11.590;2023-03-19T15:40:58;3.39;;;2.37;;
14890;SDS011;7537;48.014;11.590;2023-03-19T15:46:29;2.04;;;1.98;;
14890;SDS011;7537;48.014;11.590;2023-03-19T15:51:57;2.09;;;1.67;;
14890;SDS011;7537;48.014;11.590;2023-03-19T15:57:35;1.68;;;1.76;;
14890;SDS011;7537;48.014;11.590;2023-03-19T16:03:04;1.61;;;1.69;;
14890;SDS011;7537;48.014;11.590;2023-03-19T16:08:32;2.31;;;1.86;;
14890;SDS011;7537;48.014;11.590;2023-03-19T16:14:00;5.98;;;1.83;;
14890;SDS011;7537;48.014;11.590;2023-03-19T16:19:31;2.14;;;2.09;;
14890;SDS011;7537;48.014;11.590;2023-03-19T16:25:00;2.22;;;2.41;;
14890;SDS011;7537;48.014;11.590;2023-03-19T16:30:30;3.01;;;2.51;;
14890;SDS011;7537;48.014;11.590;2023-03-19T16:36:09;1.43;;;1.48;;
14890;SDS011;7537;48.014;11.590;2023-03-19T16:41:38;1.46;;;1.50;;
14890;SDS011;7537;48.014;11.590;2023-03-19T16:47:08;1.47;;;1.50;;
14890;SDS011;7537;48.014;11.590;2023-03-19T16:52:37;3.76;;;1.41;;
14890;SDS011;7537;48.014;11.590;2023-03-19T16:58:11;1.48;;;1.31;;
14890;SDS011;7537;48.014;11.590;2023-03-19T17:03:31;5.72;;;2.01;;
14890;SDS011;7537;48.014;11.590;2023-03-19T17:08:58;1.74;;;1.50;;
14890;SDS011;7537;48.014;11.590;2023-03-19T17:14:26;4.26;;;1.99;;
14890;SDS011;7537;48.014;11.590;2023-03-19T17:19:53;1.65;;;1.59;;
14890;SDS011;7537;48.014;11.590;2023-03-19T17:25:21;1.57;;;1.51;;
14890;SDS011;7537;48.014;11.590;2023-03-19T17:30:48;1.56;;;1.63;;
14890;SDS011;7537;48.014;11.590;2023-03-19T17:36:16;1.81;;;1.78;;
14890;SDS011;7537;48.014;11.590;2023-03-19T17:41:45;3.09;;;2.14;;
14890;SDS011;7537;48.014;11.590;2023-03-19T17:47:12;1.79;;;1.54;;
14890;SDS011;7537;48.014;11.590;2023-03-19T17:52:45;3.02;;;2.24;;
14890;SDS011;7537;48.014;11.590;2023-03-19T17:58:17;2.46;;;1.58;;
14890;SDS011;7537;48.014;11.590;2023-03-19T18:03:45;2.20;;;1.60;;
14890;SDS011;7537;48.014;11.590;2023-03-19T18:09:15;3.32;;;2.01;;
14890;SDS011;7537;48.014;11.590;2023-03-19T18:14:43;4.07;;;1.49;;
14890;SDS011;7537;48.014;11.590;2023-03-19T18:20:14;2.17;;;1.86;;
14890;SDS011;7537;48.014;11.590;2023-03-19T18:25:42;1.81;;;1.66;;
14890;SDS011;7537;48.014;11.590;2023-03-19T18:31:11;2.31;;;1.74;;
14890;SDS011;7537;48.014;11.590;2023-03-19T18:36:40;2.78;;;2.66;;
14890;SDS011;7537;48.014;11.590;2023-03-19T18:42:08;2.34;;;2.02;;
14890;SDS011;7537;48.014;11.590;2023-03-19T18:47:35;3.28;;;2.45;;
14890;SDS011;7537;48.014;11.590;2023-03-19T18:53:07;2.96;;;1.09;;
14890;SDS011;7537;48.014;11.590;2023-03-19T18:58:43;7.25;;;1.96;;
14890;SDS011;7537;48.014;11.590;2023-03-19T19:04:11;2.47;;;1.79;;
14890;SDS011;7537;48.014;11.590;2023-03-19T19:09:39;2.21;;;1.94;;
14890;SDS011;7537;48.014;11.590;2023-03-19T19:15:10;2.99;;;1.32;;
14890;SDS011;7537;48.014;11.590;2023-03-19T19:20:40;4.51;;;1.39;;
14890;SDS011;7537;48.014;11.590;2023-03-19T19:26:10;2.62;;;1.42;;
14890;SDS011;7537;48.014;11.590;2023-03-19T19:31:42;1.81;;;1.65;;
14890;SDS011;7537;48.014;11.590;2023-03-19T19:37:10;4.76;;;1.74;;
14890;SDS011;7537;48.014;11.590;2023-03-19T19:42:40;1.69;;;1.76;;
14890;SDS011;7537;48.014;11.590;2023-03-19T19:48:10;2.54;;;1.68;;
14890;SDS011;7537;48.014;11.590;2023-03-19T19:53:39;2.37;;;1.70;;
14890;SDS011;7537;48.014;11.590;2023-03-19T19:59:11;5.34;;;2.03;;
14890;SDS011;7537;48.014;11.590;2023-03-19T20:04:43;4.89;;;1.53;;
14890;SDS011;7537;48.014;11.590;2023-03-19T20:10:10;3.93;;;1.22;;
14890;SDS011;7537;48.014;11.590;2023-03-19T20:15:38;2.27;;;2.31;;
14890;SDS011;7537;48.014;11.590;2023-03-19T20:21:05;2.70;;;2.29;;
14890;SDS011;7537;48.014;11.590;2023-03-19T20:26:33;2.41;;;2.49;;
14890;SDS011;7537;48.014;11.590;2023-03-19T20:32:03;5.64;;;3.01;;
14890;SDS011;7537;48.014;11.590;2023-03-19T20:37:30;4.10;;;2.72;;
14890;SDS011;7537;48.014;11.590;2023-03-19T20:42:58;1.96;;;2.08;;
14890;SDS011;7537;48.014;11.590;2023-03-19T20:48:26;4.46;;;3.27;;
14890;SDS011;7537;48.014;11.590;2023-03-19T20:53:53;3.36;;;2.82;;
14890;SDS011;7537;48.014;11.590;2023-03-19T20:59:24;3.20;;;3.04;;
14890;SDS011;7537;48.014;11.590;2023-03-19T21:04:52;3.13;;;3.21;;
14890;SDS011;7537;48.014;11.590;2023-03-19T21:10:25;6.69;;;3.55;;
14890;SDS011;7537;48.014;11.590;2023-03-19T21:15:55;4.00;;;3.97;;
14890;SDS011;7537;48.014;11.590;2023-03-19T21:21:25;4.94;;;3.44;;
14890;SDS011;7537;48.014;11.590;2023-03-19T21:26:53;2.86;;;2.98;;
14890;SDS011;7537;48.014;11.590;2023-03-19T21:32:22;3.65;;;2.92;;
14890;SDS011;7537;48.014;11.590;2023-03-19T21:37:59;7.72;;;3.13;;
14890;SDS011;7537;48.014;11.590;2023-03-19T21:43:28;3.86;;;3.31;;
14890;SDS011;7537;48.014;11.590;2023-03-19T21:48:59;3.49;;;3.56;;
14890;SDS011;7537;48.014;11.590;2023-03-19T21:54:27;4.79;;;3.71;;
14890;SDS011;7537;48.014;11.590;2023-03-19T21:59:57;3.99;;;4.11;;
14890;SDS011;7537;48.014;11.590;2023-03-19T22:05:25;5.78;;;4.64;;
14890;SDS011;7537;48.014;11.590;2023-03-19T22:10:54;6.74;;;5.18;;
14890;SDS011;7537;48.014;11.590;2023-03-19T22:16:23;6.63;;;5.56;;
14890;SDS011;7537;48.014;11.590;2023-03-19T22:21:50;5.83;;;4.99;;
14890;SDS011;7537;48.014;11.590;2023-03-19T22:27:18;4.32;;;4.39;;
14890;SDS011;7537;48.014;11.590;2023-03-19T22:32:46;6.66;;;5.34;;
14890;SDS011;7537;48.014;11.590;2023-03-19T22:38:14;4.91;;;5.05;;
14890;SDS011;7537;48.014;11.590;2023-03-19T22:43:43;6.29;;;5.75;;
14890;SDS011;7537;48.014;11.590;2023-03-19T22:49:12;6.38;;;6.11;;
14890;SDS011;7537;48.014;11.590;2023-03-19T22:54:41;7.24;;;5.35;;
14890;SDS011;7537;48.014;11.590;2023-03-19T23:00:29;5.68;;;5.57;;
14890;SDS011;7537;48.014;11.590;2023-03-19T23:05:57;6.29;;;4.60;;
14890;SDS011;7537;48.014;11.590;2023-03-19T23:11:25;5.54;;;5.14;;
14890;SDS011;7537;48.014;11.590;2023-03-19T23:16:54;4.68;;;4.79;;
14890;SDS011;7537;48.014;11.590;2023-03-19T23:22:23;5.65;;;5.76;;
14890;SDS011;7537;48.014;11.590;2023-03-19T23:27:51;6.86;;;5.09;;
14890;SDS011;7537;48.014;11.590;2023-03-19T23:33:20;6.79;;;4.72;;
14890;SDS011;7537;48.014;11.590;2023-03-19T23:38:48;5.07;;;5.11;;
14890;SDS011;7537;48.014;11.590;2023-03-19T23:44:16;4.11;;;4.23;;
14890;SDS011;7537;48.014;11.590;2023-03-19T23:49:45;3.91;;;4.07;;
14890;SDS011;7537;48.014;11.590;2023-03-19T23:55:13;9.56;;;5.47;;
